Time,TemperatureF,DewpointF,PressureIn,WindDirection,WindDirectionDegrees,WindSpeedMPH,WindSpeedGustMPH,Humidity,HourlyPrecipIn,Conditions,Clouds,dailyrainin,SoftwareType,DateUTC
2013-11-02 00:01:00,44.7,41.7,29.84,West,273,0.0,0.0,89,0.00,,,0.00,Wunderground v.1.13,2013-11-02 04:01:00,
2013-11-02 00:02:00,44.6,41.6,29.84,West,273,0.0,0.0,89,0.00,,,0.00,Wunderground v.1.13,2013-11-02 04:02:00,
2013-11-02 00:03:00,44.6,41.6,29.84,West,273,0.0,0.0,89,0.00,,,0.00,Wunderground v.1.13,2013-11-02 04:03:00,
2013-11-02 00:06:00,44.5,41.5,29.84,West,273,0.0,0.0,89,0.00,,,0.00,Wunderground v.1.13,2013-11-02 04:06:00,
2013-11-02 00:11:00,44.3,41.3,29.84,West,273,0.0,0.0,89,0.00,,,0.00,Wunderground v.1.13,2013-11-02 04:11:00,
2013-11-02 00:17:00,44.1,41.1,29.84,West,273,0.0,0.0,89,0.00,,,0.00,Wunderground v.1.13,2013-11-02 04:17:00,
2013-11-02 00:23:00,43.9,40.9,29.84,West,273,0.0,0.0,89,0.00,,,0.00,Wunderground v.1.13,2013-11-02 04:23:00,
2013-11-02 00:24:00,43.9,40.9,29.84,West,273,0.0,0.0,89,0.00,,,0.00,Wunderground v.1.13,2013-11-02 04:24:00,
2013-11-02 00:29:00,43.7,40.7,29.84,West,273,0.0,0.0,89,0.00,,,0.00,Wunderground v.1.13,2013-11-02 04:29:00,
2013-11-02 00:34:00,43.5,40.5,29.84,West,273,0.0,0.0,89,0.00,,,0.00,Wunderground v.1.13,2013-11-02 04:34:00,
2013-11-02 00:40:00,43.4,40.7,29.83,West,273,0.0,0.0,90,0.00,,,0.00,Wunderground v.1.13,2013-11-02 04:40:00,
2013-11-02 00:45:00,43.3,40.6,29.83,West,273,0.0,0.0,90,0.00,,,0.00,Wunderground v.1.13,2013-11-02 04:45:00,
2013-11-02 00:51:00,43.2,40.5,29.83,West,273,0.0,0.0,90,0.00,,,0.00,Wunderground v.1.13,2013-11-02 04:51:00,
2013-11-02 00:57:00,43.1,40.4,29.83,West,273,0.0,0.0,90,0.00,,,0.00,Wunderground v.1.13,2013-11-02 04:57:00,
2013-11-02 01:02:00,43.0,40.3,29.83,West,273,0.0,0.0,90,0.00,,,0.00,Wunderground v.1.13,2013-11-02 05:02:00,
2013-11-02 01:07:00,43.0,40.3,29.83,West,273,0.0,0.0,90,0.00,,,0.00,Wunderground v.1.13,2013-11-02 05:07:00,
2013-11-02 01:13:00,43.0,40.6,29.83,West,273,0.0,0.0,91,0.00,,,0.00,Wunderground v.1.13,2013-11-02 05:13:00,
2013-11-02 01:19:00,43.0,40.6,29.83,West,273,0.0,0.0,91,0.00,,,0.00,Wunderground v.1.13,2013-11-02 05:19:00,
2013-11-02 01:24:00,42.9,40.5,29.83,West,273,0.0,0.0,91,0.00,,,0.00,Wunderground v.1.13,2013-11-02 05:24:00,
2013-11-02 01:30:00,42.9,40.5,29.83,West,273,0.0,0.0,91,0.00,,,0.00,Wunderground v.1.13,2013-11-02 05:30:00,
2013-11-02 01:35:00,42.9,40.5,29.83,West,273,0.0,0.0,91,0.00,,,0.00,Wunderground v.1.13,2013-11-02 05:35:00,
2013-11-02 01:41:00,42.9,40.5,29.83,West,273,0.0,0.0,91,0.00,,,0.00,Wunderground v.1.13,2013-11-02 05:41:00,
2013-11-02 01:46:00,43.0,40.6,29.83,West,273,0.0,0.0,91,0.00,,,0.00,Wunderground v.1.13,2013-11-02 05:46:00,
2013-11-02 01:52:00,43.0,40.8,29.83,West,273,0.0,0.0,92,0.00,,,0.00,Wunderground v.1.13,2013-11-02 05:52:00,
2013-11-02 01:57:00,43.1,40.9,29.83,West,273,0.0,0.0,92,0.00,,,0.00,Wunderground v.1.13,2013-11-02 05:57:00,
2013-11-02 02:02:00,43.0,40.8,29.83,West,273,0.0,0.0,92,0.00,,,0.00,Wunderground v.1.13,2013-11-02 06:02:00,
2013-11-02 02:08:00,43.0,40.8,29.83,West,273,0.0,0.0,92,0.00,,,0.00,Wunderground v.1.13,2013-11-02 06:08:00,
2013-11-02 02:13:00,43.1,40.9,29.84,West,273,0.0,0.0,92,0.00,,,0.00,Wunderground v.1.13,2013-11-02 06:13:00,
2013-11-02 02:19:00,43.1,40.9,29.83,West,273,0.0,0.0,92,0.00,,,0.00,Wunderground v.1.13,2013-11-02 06:19:00,
2013-11-02 02:25:00,43.1,40.9,29.84,West,273,0.0,0.0,92,0.00,,,0.00,Wunderground v.1.13,2013-11-02 06:25:00,
2013-11-02 02:30:00,43.1,40.9,29.84,West,273,0.0,0.0,92,0.00,,,0.00,Wunderground v.1.13,2013-11-02 06:30:00,
2013-11-02 02:35:00,43.0,40.8,29.84,West,273,0.0,0.0,92,0.00,,,0.00,Wunderground v.1.13,2013-11-02 06:35:00,
2013-11-02 02:41:00,43.0,40.8,29.84,West,273,0.0,0.0,92,0.00,,,0.00,Wunderground v.1.13,2013-11-02 06:41:00,
2013-11-02 02:47:00,42.9,40.7,29.84,West,273,0.0,0.0,92,0.00,,,0.00,Wunderground v.1.13,2013-11-02 06:47:00,
2013-11-02 02:52:00,42.8,40.6,29.84,West,273,0.0,0.0,92,0.00,,,0.00,Wunderground v.1.13,2013-11-02 06:52:00,
2013-11-02 02:58:00,42.7,40.5,29.85,West,273,0.0,0.0,92,0.00,,,0.00,Wunderground v.1.13,2013-11-02 06:58:00,
2013-11-02 03:03:00,42.5,40.3,29.85,West,273,0.0,0.0,92,0.00,,,0.00,Wunderground v.1.13,2013-11-02 07:03:00,
2013-11-02 03:09:00,42.4,40.2,29.85,West,273,0.0,0.0,92,0.00,,,0.00,Wunderground v.1.13,2013-11-02 07:09:00,
2013-11-02 03:14:00,42.3,40.1,29.85,West,273,0.0,0.0,92,0.00,,,0.00,Wunderground v.1.13,2013-11-02 07:14:00,
2013-11-02 03:20:00,42.1,39.9,29.85,West,273,0.0,0.0,92,0.00,,,0.00,Wunderground v.1.13,2013-11-02 07:20:00,
2013-11-02 03:25:00,41.9,39.7,29.85,West,273,0.0,0.0,92,0.00,,,0.00,Wunderground v.1.13,2013-11-02 07:25:00,
2013-11-02 03:31:00,41.8,39.6,29.85,West,273,0.0,0.0,92,0.00,,,0.00,Wunderground v.1.13,2013-11-02 07:31:00,
2013-11-02 03:37:00,41.7,39.5,29.85,West,273,0.0,0.0,92,0.00,,,0.00,Wunderground v.1.13,2013-11-02 07:37:00,
2013-11-02 03:43:00,41.6,39.4,29.85,West,273,0.0,0.0,92,0.00,,,0.00,Wunderground v.1.13,2013-11-02 07:43:00,
2013-11-02 03:48:00,41.5,39.3,29.85,West,273,0.0,0.0,92,0.00,,,0.00,Wunderground v.1.13,2013-11-02 07:48:00,
2013-11-02 03:54:00,41.4,39.3,29.85,West,273,0.0,0.0,92,0.00,,,0.00,Wunderground v.1.13,2013-11-02 07:54:00,
2013-11-02 03:59:00,41.4,39.3,29.85,West,273,0.0,0.0,92,0.00,,,0.00,Wunderground v.1.13,2013-11-02 07:59:00,
2013-11-02 04:04:00,41.4,39.5,29.85,West,273,0.0,0.0,93,0.00,,,0.00,Wunderground v.1.13,2013-11-02 08:04:00,
2013-11-02 04:10:00,41.4,39.5,29.86,West,273,0.0,0.0,93,0.00,,,0.00,Wunderground v.1.13,2013-11-02 08:10:00,
2013-11-02 04:16:00,41.4,39.5,29.86,West,273,0.0,0.0,93,0.00,,,0.00,Wunderground v.1.13,2013-11-02 08:16:00,
2013-11-02 04:21:00,41.4,39.5,29.86,West,273,0.0,0.0,93,0.00,,,0.00,Wunderground v.1.13,2013-11-02 08:21:00,
2013-11-02 04:27:00,41.4,39.5,29.86,West,273,0.0,0.0,93,0.00,,,0.00,Wunderground v.1.13,2013-11-02 08:27:00,
2013-11-02 04:33:00,41.3,39.4,29.86,West,273,0.0,0.0,93,0.00,,,0.00,Wunderground v.1.13,2013-11-02 08:33:00,
2013-11-02 04:38:00,41.3,39.4,29.86,West,273,0.0,0.0,93,0.00,,,0.00,Wunderground v.1.13,2013-11-02 08:38:00,
2013-11-02 04:44:00,41.2,39.3,29.86,West,273,0.0,0.0,93,0.00,,,0.00,Wunderground v.1.13,2013-11-02 08:44:00,
2013-11-02 04:50:00,41.2,39.3,29.86,West,273,0.0,0.0,93,0.00,,,0.00,Wunderground v.1.13,2013-11-02 08:50:00,
2013-11-02 04:55:00,41.1,39.2,29.86,West,273,0.0,0.0,93,0.00,,,0.00,Wunderground v.1.13,2013-11-02 08:55:00,
2013-11-02 05:01:00,41.0,39.1,29.86,West,273,0.0,0.0,93,0.00,,,0.00,Wunderground v.1.13,2013-11-02 09:01:00,
2013-11-02 05:07:00,40.9,39.0,29.87,West,273,0.0,0.0,93,0.00,,,0.00,Wunderground v.1.13,2013-11-02 09:07:00,
2013-11-02 05:12:00,40.7,38.8,29.87,West,273,0.0,0.0,93,0.00,,,0.00,Wunderground v.1.13,2013-11-02 09:12:00,
2013-11-02 05:18:00,40.5,38.6,29.87,West,273,0.0,0.0,93,0.00,,,0.00,Wunderground v.1.13,2013-11-02 09:18:00,
2013-11-02 05:24:00,40.3,38.4,29.87,West,273,0.0,0.0,93,0.00,,,0.00,Wunderground v.1.13,2013-11-02 09:24:00,
2013-11-02 05:29:00,40.2,38.3,29.87,West,273,0.0,0.0,93,0.00,,,0.00,Wunderground v.1.13,2013-11-02 09:29:00,
2013-11-02 05:34:00,40.1,38.2,29.87,West,273,0.0,0.0,93,0.00,,,0.00,Wunderground v.1.13,2013-11-02 09:34:00,
2013-11-02 05:40:00,39.9,38.0,29.87,West,273,0.0,0.0,93,0.00,,,0.00,Wunderground v.1.13,2013-11-02 09:40:00,
2013-11-02 05:45:00,39.8,37.9,29.88,West,273,0.0,0.0,93,0.00,,,0.00,Wunderground v.1.13,2013-11-02 09:45:00,
2013-11-02 05:51:00,39.7,37.8,29.88,West,273,0.0,0.0,93,0.00,,,0.00,Wunderground v.1.13,2013-11-02 09:51:00,
2013-11-02 05:56:00,39.6,37.7,29.88,West,273,0.0,0.0,93,0.00,,,0.00,Wunderground v.1.13,2013-11-02 09:56:00,
2013-11-02 06:02:00,39.4,37.5,29.88,West,273,0.0,0.0,93,0.00,,,0.00,Wunderground v.1.13,2013-11-02 10:02:00,
2013-11-02 06:07:00,39.3,37.4,29.88,West,273,0.0,0.0,93,0.00,,,0.00,Wunderground v.1.13,2013-11-02 10:07:00,
2013-11-02 06:12:00,39.2,37.3,29.88,West,273,0.0,0.0,93,0.00,,,0.00,Wunderground v.1.13,2013-11-02 10:12:00,
2013-11-02 06:18:00,39.1,37.2,29.88,West,273,0.0,0.0,93,0.00,,,0.00,Wunderground v.1.13,2013-11-02 10:18:00,
2013-11-02 06:24:00,39.0,37.1,29.89,West,273,0.0,0.0,93,0.00,,,0.00,Wunderground v.1.13,2013-11-02 10:24:00,
2013-11-02 06:29:00,38.8,36.9,29.89,West,273,0.0,0.0,93,0.00,,,0.00,Wunderground v.1.13,2013-11-02 10:29:00,
2013-11-02 06:35:00,38.7,36.9,29.88,West,273,0.0,0.0,93,0.00,,,0.00,Wunderground v.1.13,2013-11-02 10:35:00,
2013-11-02 06:41:00,38.6,36.8,29.88,West,273,0.0,0.0,93,0.00,,,0.00,Wunderground v.1.13,2013-11-02 10:41:00,
2013-11-02 06:47:00,38.5,36.7,29.88,West,273,0.0,0.0,93,0.00,,,0.00,Wunderground v.1.13,2013-11-02 10:47:00,
2013-11-02 06:52:00,38.4,36.6,29.89,West,273,0.0,0.0,93,0.00,,,0.00,Wunderground v.1.13,2013-11-02 10:52:00,
2013-11-02 06:58:00,38.3,36.5,29.89,West,273,0.0,0.0,93,0.00,,,0.00,Wunderground v.1.13,2013-11-02 10:58:00,
2013-11-02 07:03:00,38.1,36.3,29.89,West,273,0.0,0.0,93,0.00,,,0.00,Wunderground v.1.13,2013-11-02 11:03:00,
2013-11-02 07:08:00,38.0,36.2,29.89,West,273,0.0,0.0,93,0.00,,,0.00,Wunderground v.1.13,2013-11-02 11:08:00,
2013-11-02 07:14:00,37.9,36.1,29.89,West,273,0.0,0.0,93,0.00,,,0.00,Wunderground v.1.13,2013-11-02 11:14:00,
2013-11-02 07:19:00,37.9,36.1,29.89,West,273,0.0,0.0,93,0.00,,,0.00,Wunderground v.1.13,2013-11-02 11:19:00,
2013-11-02 07:25:00,37.8,36.0,29.89,West,273,0.0,0.0,93,0.00,,,0.00,Wunderground v.1.13,2013-11-02 11:25:00,
2013-11-02 07:31:00,37.7,35.9,29.89,West,273,0.0,0.0,93,0.00,,,0.00,Wunderground v.1.13,2013-11-02 11:31:00,
2013-11-02 07:37:00,37.6,35.8,29.90,West,273,0.0,0.0,93,0.00,,,0.00,Wunderground v.1.13,2013-11-02 11:37:00,
2013-11-02 07:42:00,37.5,35.7,29.90,West,273,0.0,0.0,93,0.00,,,0.00,Wunderground v.1.13,2013-11-02 11:42:00,
2013-11-02 07:48:00,37.6,35.8,29.90,West,273,0.0,0.0,93,0.00,,,0.00,Wunderground v.1.13,2013-11-02 11:48:00,
2013-11-02 07:53:00,37.6,35.8,29.90,West,273,0.0,0.0,93,0.00,,,0.00,Wunderground v.1.13,2013-11-02 11:53:00,
2013-11-02 07:59:00,37.7,36.1,29.90,West,273,0.0,0.0,94,0.00,,,0.00,Wunderground v.1.13,2013-11-02 11:59:00,
2013-11-02 08:05:00,37.6,36.0,29.90,West,273,0.0,0.0,94,0.00,,,0.00,Wunderground v.1.13,2013-11-02 12:05:00,
2013-11-02 08:10:00,37.7,36.1,29.91,West,273,0.0,0.0,94,0.00,,,0.00,Wunderground v.1.13,2013-11-02 12:10:00,
2013-11-02 08:16:00,37.7,36.1,29.91,West,273,0.0,0.0,94,0.00,,,0.00,Wunderground v.1.13,2013-11-02 12:16:00,
2013-11-02 08:22:00,37.6,36.0,29.91,West,273,0.0,0.0,94,0.00,,,0.00,Wunderground v.1.13,2013-11-02 12:22:00,
2013-11-02 08:27:00,37.6,36.0,29.92,West,273,0.0,0.0,94,0.00,,,0.00,Wunderground v.1.13,2013-11-02 12:27:00,
2013-11-02 08:32:00,37.7,36.1,29.92,West,273,0.0,0.0,94,0.00,,,0.00,Wunderground v.1.13,2013-11-02 12:32:00,
2013-11-02 08:38:00,37.9,36.3,29.92,SSW,213,0.0,0.0,94,0.00,,,0.00,Wunderground v.1.13,2013-11-02 12:38:00,
2013-11-02 08:43:00,38.2,36.6,29.93,SW,217,0.0,0.0,94,0.00,,,0.00,Wunderground v.1.13,2013-11-02 12:43:00,
2013-11-02 08:49:00,38.7,37.4,29.93,SW,217,0.0,0.0,95,0.00,,,0.00,Wunderground v.1.13,2013-11-02 12:49:00,
2013-11-02 08:54:00,39.8,38.8,29.93,SW,217,0.0,0.0,96,0.00,,,0.00,Wunderground v.1.13,2013-11-02 12:54:00,
2013-11-02 09:00:00,41.6,40.5,29.93,SW,215,0.0,0.0,96,0.00,,,0.00,Wunderground v.1.13,2013-11-02 13:00:00,
2013-11-02 09:05:00,43.2,42.1,29.93,SW,223,0.0,0.0,96,0.00,,,0.00,Wunderground v.1.13,2013-11-02 13:05:00,
2013-11-02 09:10:00,44.0,43.2,29.93,SW,223,0.0,0.0,97,0.00,,,0.00,Wunderground v.1.13,2013-11-02 13:10:00,
2013-11-02 09:16:00,44.2,43.1,29.93,SW,223,0.0,0.0,96,0.00,,,0.00,Wunderground v.1.13,2013-11-02 13:16:00,
2013-11-02 09:21:00,44.8,43.7,29.94,SW,223,0.0,0.0,96,0.00,,,0.00,Wunderground v.1.13,2013-11-02 13:21:00,
2013-11-02 09:27:00,45.5,44.4,29.94,SW,223,0.0,0.0,96,0.00,,,0.00,Wunderground v.1.13,2013-11-02 13:27:00,
2013-11-02 09:32:00,45.9,44.8,29.94,SW,223,0.0,0.0,96,0.00,,,0.00,Wunderground v.1.13,2013-11-02 13:32:00,
2013-11-02 09:37:00,46.2,45.1,29.94,SW,223,0.0,0.0,96,0.00,,,0.00,Wunderground v.1.13,2013-11-02 13:37:00,
2013-11-02 09:43:00,47.1,46.3,29.95,SW,223,0.0,0.0,97,0.00,,,0.00,Wunderground v.1.13,2013-11-02 13:43:00,
2013-11-02 09:49:00,47.8,46.7,29.95,SW,223,0.0,0.0,96,0.00,,,0.00,Wunderground v.1.13,2013-11-02 13:49:00,
2013-11-02 09:54:00,49.1,48.0,29.95,SW,223,0.0,0.0,96,0.00,,,0.00,Wunderground v.1.13,2013-11-02 13:54:00,
2013-11-02 10:00:00,50.0,48.6,29.95,SW,223,0.0,0.0,95,0.00,,,0.00,Wunderground v.1.13,2013-11-02 14:00:00,
2013-11-02 10:05:00,50.6,48.9,29.95,SW,223,0.0,0.0,94,0.00,,,0.00,Wunderground v.1.13,2013-11-02 14:05:00,
2013-11-02 10:10:00,51.8,49.8,29.95,SW,228,0.0,1.0,93,0.00,,,0.00,Wunderground v.1.13,2013-11-02 14:10:00,
2013-11-02 10:16:00,52.0,48.9,29.95,NW,310,3.0,5.0,89,0.00,,,0.00,Wunderground v.1.13,2013-11-02 14:16:00,
2013-11-02 10:21:00,52.2,48.8,29.95,NW,310,5.0,5.0,88,0.00,,,0.00,Wunderground v.1.13,2013-11-02 14:21:00,
2013-11-02 10:27:00,53.1,48.7,29.95,NW,307,4.0,5.0,85,0.00,,,0.00,Wunderground v.1.13,2013-11-02 14:27:00,
2013-11-02 10:33:00,53.6,47.9,29.95,NW,307,4.0,6.0,81,0.00,,,0.00,Wunderground v.1.13,2013-11-02 14:33:00,
2013-11-02 10:39:00,54.1,47.4,29.95,NW,308,4.0,6.0,78,0.00,,,0.00,Wunderground v.1.13,2013-11-02 14:39:00,
2013-11-02 10:44:00,54.4,47.3,29.95,NW,307,4.0,4.0,77,0.00,,,0.00,Wunderground v.1.13,2013-11-02 14:44:00,
2013-11-02 10:50:00,54.6,47.2,29.95,NW,309,4.0,4.0,76,0.00,,,0.00,Wunderground v.1.13,2013-11-02 14:50:00,
2013-11-02 10:56:00,54.9,46.8,29.95,NW,309,4.0,6.0,74,0.00,,,0.00,Wunderground v.1.13,2013-11-02 14:56:00,
2013-11-02 11:01:00,55.1,47.3,29.95,NW,311,4.0,7.0,75,0.00,,,0.00,Wunderground v.1.13,2013-11-02 15:01:00,
2013-11-02 11:07:00,55.8,47.6,29.95,WNW,302,5.0,7.0,74,0.00,,,0.00,Wunderground v.1.13,2013-11-02 15:07:00,
2013-11-02 11:13:00,55.9,47.0,29.95,NW,316,5.0,6.0,72,0.00,,,0.00,Wunderground v.1.13,2013-11-02 15:13:00,
2013-11-02 11:18:00,55.9,46.3,29.95,NW,313,5.0,6.0,70,0.00,,,0.00,Wunderground v.1.13,2013-11-02 15:18:00,
2013-11-02 11:24:00,55.8,46.5,29.95,NW,322,4.0,6.0,71,0.00,,,0.00,Wunderground v.1.13,2013-11-02 15:24:00,
2013-11-02 11:30:00,55.8,46.5,29.96,NNW,327,3.0,3.0,71,0.00,,,0.00,Wunderground v.1.13,2013-11-02 15:30:00,
2013-11-02 11:36:00,56.0,46.4,29.95,NW,324,3.0,4.0,70,0.00,,,0.00,Wunderground v.1.13,2013-11-02 15:36:00,
2013-11-02 11:41:00,56.2,46.2,29.96,NW,315,3.0,3.0,69,0.00,,,0.00,Wunderground v.1.13,2013-11-02 15:41:00,
2013-11-02 11:47:00,56.7,46.6,29.95,NW,315,2.0,3.0,69,0.00,,,0.00,Wunderground v.1.13,2013-11-02 15:47:00,
2013-11-02 11:52:00,57.6,45.9,29.95,NW,315,2.0,5.0,65,0.00,,,0.00,Wunderground v.1.13,2013-11-02 15:52:00,
2013-11-02 11:58:00,57.9,44.1,29.95,NW,304,3.0,3.0,60,0.00,,,0.00,Wunderground v.1.13,2013-11-02 15:58:00,
2013-11-02 12:04:00,59.0,45.1,29.95,WNW,302,3.0,3.0,60,0.00,,,0.00,Wunderground v.1.13,2013-11-02 16:04:00,
2013-11-02 12:10:00,59.5,43.3,29.96,NW,308,5.0,6.0,55,0.00,,,0.00,Wunderground v.1.13,2013-11-02 16:10:00,
2013-11-02 12:15:00,59.5,43.3,29.96,WNW,284,7.0,7.0,55,0.00,,,0.00,Wunderground v.1.13,2013-11-02 16:15:00,
2013-11-02 12:21:00,59.8,43.6,29.96,WNW,284,6.0,7.0,55,0.00,,,0.00,Wunderground v.1.13,2013-11-02 16:21:00,
2013-11-02 12:26:00,60.3,43.1,29.96,West,281,5.0,6.0,53,0.00,,,0.00,Wunderground v.1.13,2013-11-02 16:26:00,
2013-11-02 12:32:00,60.5,43.3,29.96,WNW,288,5.0,5.0,53,0.00,,,0.00,Wunderground v.1.13,2013-11-02 16:32:00,
2013-11-02 12:38:00,60.4,43.2,29.96,WNW,288,5.0,7.0,53,0.00,,,0.00,Wunderground v.1.13,2013-11-02 16:38:00,
2013-11-02 12:44:00,60.2,42.5,29.95,NW,326,6.0,7.0,52,0.00,,,0.00,Wunderground v.1.13,2013-11-02 16:44:00,
2013-11-02 12:49:00,59.9,43.2,29.95,NW,315,5.0,9.0,54,0.00,,,0.00,Wunderground v.1.13,2013-11-02 16:49:00,
2013-11-02 12:55:00,60.2,44.0,29.95,WNW,287,4.0,7.0,55,0.00,,,0.00,Wunderground v.1.13,2013-11-02 16:55:00,
2013-11-02 13:01:00,60.6,43.4,29.95,WNW,286,5.0,6.0,53,0.00,,,0.00,Wunderground v.1.13,2013-11-02 17:01:00,
2013-11-02 13:06:00,60.3,40.5,29.95,NNW,346,7.0,7.0,48,0.00,,,0.00,Wunderground v.1.13,2013-11-02 17:06:00,
2013-11-02 13:11:00,59.5,39.8,29.95,NW,325,9.0,12.0,48,0.00,,,0.00,Wunderground v.1.13,2013-11-02 17:11:00,
2013-11-02 13:17:00,59.4,39.7,29.95,NW,304,11.0,11.0,48,0.00,,,0.00,Wunderground v.1.13,2013-11-02 17:17:00,
2013-11-02 13:22:00,60.0,39.7,29.95,NW,314,11.0,17.0,47,0.00,,,0.00,Wunderground v.1.13,2013-11-02 17:22:00,
2013-11-02 13:28:00,59.6,39.3,29.96,NW,304,11.0,11.0,47,0.00,,,0.00,Wunderground v.1.13,2013-11-02 17:28:00,
2013-11-02 13:33:00,59.2,39.5,29.95,WNW,300,8.0,11.0,48,0.00,,,0.00,Wunderground v.1.13,2013-11-02 17:33:00,
2013-11-02 13:39:00,59.2,39.5,29.95,WNW,284,7.0,10.0,48,0.00,,,0.00,Wunderground v.1.13,2013-11-02 17:39:00,
2013-11-02 13:44:00,60.1,40.3,29.95,West,281,8.0,13.0,48,0.00,,,0.00,Wunderground v.1.13,2013-11-02 17:44:00,
2013-11-02 13:49:00,60.7,40.9,29.95,WNW,299,10.0,14.0,48,0.00,,,0.00,Wunderground v.1.13,2013-11-02 17:49:00,
2013-11-02 13:55:00,61.2,40.2,29.94,WNW,299,10.0,16.0,46,0.00,,,0.00,Wunderground v.1.13,2013-11-02 17:55:00,
2013-11-02 14:01:00,60.6,39.7,29.94,NW,315,12.0,14.0,46,0.00,,,0.00,Wunderground v.1.13,2013-11-02 18:01:00,
2013-11-02 14:06:00,60.3,40.5,29.94,NW,318,10.0,11.0,48,0.00,,,0.00,Wunderground v.1.13,2013-11-02 18:06:00,
2013-11-02 14:11:00,59.9,40.7,29.94,NW,308,7.0,10.0,49,0.00,,,0.00,Wunderground v.1.13,2013-11-02 18:11:00,
2013-11-02 14:17:00,59.8,40.6,29.94,North,5,9.0,10.0,49,0.00,,,0.00,Wunderground v.1.13,2013-11-02 18:17:00,
2013-11-02 14:23:00,59.8,40.6,29.94,WNW,286,10.0,10.0,49,0.00,,,0.00,Wunderground v.1.13,2013-11-02 18:23:00,
2013-11-02 14:29:00,59.5,43.3,29.94,WNW,296,9.0,11.0,55,0.00,,,0.00,Wunderground v.1.13,2013-11-02 18:29:00,
2013-11-02 14:34:00,59.0,41.9,29.94,NNW,330,6.0,8.0,53,0.00,,,0.00,Wunderground v.1.13,2013-11-02 18:34:00,
2013-11-02 14:39:00,58.4,41.3,29.94,NW,325,6.0,11.0,53,0.00,,,0.00,Wunderground v.1.13,2013-11-02 18:39:00,
2013-11-02 14:45:00,58.1,41.5,29.94,NW,314,5.0,7.0,54,0.00,,,0.00,Wunderground v.1.13,2013-11-02 18:45:00,
2013-11-02 14:50:00,58.2,41.1,29.93,NNW,333,4.0,4.0,53,0.00,,,0.00,Wunderground v.1.13,2013-11-02 18:50:00,
2013-11-02 14:56:00,58.7,41.6,29.93,WNW,284,5.0,9.0,53,0.00,,,0.00,Wunderground v.1.13,2013-11-02 18:56:00,
2013-11-02 15:01:00,59.1,41.0,29.93,WNW,294,7.0,10.0,51,0.00,,,0.00,Wunderground v.1.13,2013-11-02 19:01:00,
2013-11-02 15:07:00,59.3,40.7,29.93,WNW,301,7.0,7.0,50,0.00,,,0.00,Wunderground v.1.13,2013-11-02 19:07:00,
2013-11-02 15:12:00,59.2,41.1,29.93,WNW,290,7.0,7.0,51,0.00,,,0.00,Wunderground v.1.13,2013-11-02 19:12:00,
2013-11-02 15:18:00,59.0,41.4,29.93,WNW,302,9.0,13.0,52,0.00,,,0.00,Wunderground v.1.13,2013-11-02 19:18:00,
2013-11-02 15:23:00,59.0,39.9,29.93,WNW,295,11.0,15.0,49,0.00,,,0.00,Wunderground v.1.13,2013-11-02 19:23:00,
2013-11-02 15:29:00,59.0,40.4,29.93,WNW,286,10.0,11.0,50,0.00,,,0.00,Wunderground v.1.13,2013-11-02 19:29:00,
2013-11-02 15:34:00,59.0,40.9,29.93,WNW,302,7.0,9.0,51,0.00,,,0.00,Wunderground v.1.13,2013-11-02 19:34:00,
2013-11-02 15:40:00,58.9,41.3,29.94,WNW,289,6.0,11.0,52,0.00,,,0.00,Wunderground v.1.13,2013-11-02 19:40:00,
2013-11-02 15:45:00,58.3,42.2,29.94,NNW,330,9.0,10.0,55,0.00,,,0.00,Wunderground v.1.13,2013-11-02 19:45:00,
2013-11-02 15:51:00,57.8,41.3,29.94,NW,325,11.0,13.0,54,0.00,,,0.00,Wunderground v.1.13,2013-11-02 19:51:00,
2013-11-02 15:56:00,58.2,40.6,29.94,NNW,329,12.0,17.0,52,0.00,,,0.00,Wunderground v.1.13,2013-11-02 19:56:00,
2013-11-02 16:01:00,58.8,40.7,29.93,North,355,10.0,11.0,51,0.00,,,0.00,Wunderground v.1.13,2013-11-02 20:01:00,
2013-11-02 16:07:00,59.0,40.9,29.94,NNW,336,8.0,9.0,51,0.00,,,0.00,Wunderground v.1.13,2013-11-02 20:07:00,
2013-11-02 16:13:00,59.2,39.5,29.94,WNW,292,9.0,12.0,48,0.00,,,0.00,Wunderground v.1.13,2013-11-02 20:13:00,
2013-11-02 16:19:00,59.5,39.2,29.94,NW,305,10.0,12.0,47,0.00,,,0.00,Wunderground v.1.13,2013-11-02 20:19:00,
2013-11-02 16:24:00,59.5,39.2,29.94,NNW,342,9.0,12.0,47,0.00,,,0.00,Wunderground v.1.13,2013-11-02 20:24:00,
2013-11-02 16:30:00,59.2,38.4,29.94,WNW,294,9.0,9.0,46,0.00,,,0.00,Wunderground v.1.13,2013-11-02 20:30:00,
2013-11-02 16:36:00,59.3,39.1,29.94,WNW,288,10.0,10.0,47,0.00,,,0.00,Wunderground v.1.13,2013-11-02 20:36:00,
2013-11-02 16:42:00,59.7,38.9,29.95,NNW,333,9.0,11.0,46,0.00,,,0.00,Wunderground v.1.13,2013-11-02 20:42:00,
2013-11-02 16:48:00,59.6,38.8,29.95,WNW,303,10.0,12.0,46,0.00,,,0.00,Wunderground v.1.13,2013-11-02 20:48:00,
2013-11-02 16:53:00,59.5,38.7,29.95,WNW,300,10.0,14.0,46,0.00,,,0.00,Wunderground v.1.13,2013-11-02 20:53:00,
2013-11-02 16:59:00,59.5,38.7,29.95,WNW,300,8.0,12.0,46,0.00,,,0.00,Wunderground v.1.13,2013-11-02 20:59:00,
2013-11-02 17:04:00,59.0,38.8,29.96,NW,315,8.0,13.0,47,0.00,,,0.00,Wunderground v.1.13,2013-11-02 21:04:00,
2013-11-02 17:09:00,58.6,39.5,29.96,NW,309,9.0,12.0,49,0.00,,,0.00,Wunderground v.1.13,2013-11-02 21:09:00,
2013-11-02 17:15:00,57.9,38.3,29.96,NW,305,12.0,12.0,48,0.00,,,0.00,Wunderground v.1.13,2013-11-02 21:15:00,
2013-11-02 17:21:00,57.5,38.5,29.97,NW,304,11.0,12.0,49,0.00,,,0.00,Wunderground v.1.13,2013-11-02 21:21:00,
2013-11-02 17:26:00,57.2,38.2,29.97,NW,322,10.0,10.0,49,0.00,,,0.00,Wunderground v.1.13,2013-11-02 21:26:00,
2013-11-02 17:32:00,57.0,37.5,29.97,NW,322,9.0,12.0,48,0.00,,,0.00,Wunderground v.1.13,2013-11-02 21:32:00,
2013-11-02 17:38:00,57.0,37.5,29.97,WNW,302,10.0,12.0,48,0.00,,,0.00,Wunderground v.1.13,2013-11-02 21:38:00,
2013-11-02 17:44:00,57.0,37.5,29.97,WNW,300,10.0,13.0,48,0.00,,,0.00,Wunderground v.1.13,2013-11-02 21:44:00,
2013-11-02 17:49:00,57.0,37.5,29.98,NW,321,9.0,11.0,48,0.00,,,0.00,Wunderground v.1.13,2013-11-02 21:49:00,
2013-11-02 17:55:00,56.8,37.8,29.98,WNW,299,9.0,9.0,49,0.00,,,0.00,Wunderground v.1.13,2013-11-02 21:55:00,
2013-11-02 18:01:00,56.6,38.2,29.98,WNW,296,9.0,11.0,50,0.00,,,0.00,Wunderground v.1.13,2013-11-02 22:01:00,
2013-11-02 18:06:00,56.4,38.5,29.98,WNW,285,7.0,7.0,51,0.00,,,0.00,Wunderground v.1.13,2013-11-02 22:06:00,
2013-11-02 18:11:00,56.1,38.2,29.99,NW,304,5.0,5.0,51,0.00,,,0.00,Wunderground v.1.13,2013-11-02 22:11:00,
2013-11-02 18:17:00,55.7,37.8,29.99,WNW,286,6.0,12.0,51,0.00,,,0.00,Wunderground v.1.13,2013-11-02 22:17:00,
2013-11-02 18:23:00,55.3,38.4,29.99,West,265,7.0,7.0,53,0.00,,,0.00,Wunderground v.1.13,2013-11-02 22:23:00,
2013-11-02 18:29:00,54.8,38.0,30.00,West,276,5.0,7.0,53,0.00,,,0.00,Wunderground v.1.13,2013-11-02 22:29:00,
2013-11-02 18:34:00,54.5,38.2,30.00,West,277,3.0,5.0,54,0.00,,,0.00,Wunderground v.1.13,2013-11-02 22:34:00,
2013-11-02 18:39:00,54.2,38.4,30.00,West,277,2.0,4.0,55,0.00,,,0.00,Wunderground v.1.13,2013-11-02 22:39:00,
2013-11-02 18:45:00,53.9,38.6,30.00,West,277,2.0,3.0,56,0.00,,,0.00,Wunderground v.1.13,2013-11-02 22:45:00,
2013-11-02 18:51:00,53.6,38.3,30.01,West,277,3.0,4.0,56,0.00,,,0.00,Wunderground v.1.13,2013-11-02 22:51:00,
2013-11-02 18:56:00,53.4,38.5,30.01,West,279,2.0,3.0,57,0.00,,,0.00,Wunderground v.1.13,2013-11-02 22:56:00,
2013-11-02 19:01:00,53.2,39.2,30.02,WNW,287,3.0,3.0,59,0.00,,,0.00,Wunderground v.1.13,2013-11-02 23:01:00,
2013-11-02 19:07:00,52.9,39.0,30.02,WNW,288,3.0,3.0,59,0.00,,,0.00,Wunderground v.1.13,2013-11-02 23:07:00,
2013-11-02 19:12:00,52.8,38.9,30.02,WNW,288,1.0,2.0,59,0.00,,,0.00,Wunderground v.1.13,2013-11-02 23:12:00,
2013-11-02 19:18:00,52.6,39.1,30.03,WNW,288,1.0,2.0,60,0.00,,,0.00,Wunderground v.1.13,2013-11-02 23:18:00,
2013-11-02 19:24:00,52.3,38.8,30.03,WNW,288,1.0,3.0,60,0.00,,,0.00,Wunderground v.1.13,2013-11-02 23:24:00,
2013-11-02 19:30:00,52.1,39.1,30.04,WNW,288,1.0,1.0,61,0.00,,,0.00,Wunderground v.1.13,2013-11-02 23:30:00,
2013-11-02 19:35:00,51.8,38.8,30.04,WNW,288,1.0,1.0,61,0.00,,,0.00,Wunderground v.1.13,2013-11-02 23:35:00,
2013-11-02 19:41:00,51.6,39.4,30.04,WNW,288,0.0,0.0,63,0.00,,,0.00,Wunderground v.1.13,2013-11-02 23:41:00,
2013-11-02 19:46:00,51.3,39.1,30.04,WNW,288,0.0,2.0,63,0.00,,,0.00,Wunderground v.1.13,2013-11-02 23:46:00,
2013-11-02 19:52:00,51.0,39.2,30.05,WNW,288,1.0,3.0,64,0.00,,,0.00,Wunderground v.1.13,2013-11-02 23:52:00,
2013-11-02 19:58:00,50.8,39.1,30.05,WNW,290,2.0,3.0,64,0.00,,,0.00,Wunderground v.1.13,2013-11-02 23:58:00,
2013-11-02 20:03:00,50.8,39.1,30.05,WNW,290,2.0,3.0,64,0.00,,,0.00,Wunderground v.1.13,2013-11-03 00:03:00,
2013-11-02 20:08:00,50.8,39.1,30.06,WNW,290,2.0,2.0,64,0.00,,,0.00,Wunderground v.1.13,2013-11-03 00:08:00,
2013-11-02 20:14:00,50.9,39.1,30.06,WNW,290,2.0,4.0,64,0.00,,,0.00,Wunderground v.1.13,2013-11-03 00:14:00,
2013-11-02 20:20:00,51.0,39.2,30.06,WNW,301,2.0,2.0,64,0.00,,,0.00,Wunderground v.1.13,2013-11-03 00:20:00,
2013-11-02 20:26:00,51.2,39.4,30.07,NNW,330,3.0,7.0,64,0.00,,,0.00,Wunderground v.1.13,2013-11-03 00:26:00,
2013-11-02 20:31:00,51.7,39.5,30.07,NW,325,5.0,5.0,63,0.00,,,0.00,Wunderground v.1.13,2013-11-03 00:31:00,
2013-11-02 20:37:00,52.0,39.4,30.07,NNW,333,5.0,6.0,62,0.00,,,0.00,Wunderground v.1.13,2013-11-03 00:37:00,
2013-11-02 20:42:00,52.2,39.6,30.08,NNW,328,5.0,9.0,62,0.00,,,0.00,Wunderground v.1.13,2013-11-03 00:42:00,
2013-11-02 20:48:00,52.4,39.8,30.08,NW,312,7.0,9.0,62,0.00,,,0.00,Wunderground v.1.13,2013-11-03 00:48:00,
2013-11-02 20:53:00,52.5,39.8,30.08,NW,308,7.0,7.0,62,0.00,,,0.00,Wunderground v.1.13,2013-11-03 00:53:00,
2013-11-02 20:59:00,52.5,39.8,30.08,WNW,284,7.0,12.0,62,0.00,,,0.00,Wunderground v.1.13,2013-11-03 00:59:00,
2013-11-02 21:04:00,52.5,39.8,30.08,WNW,300,7.0,10.0,62,0.00,,,0.00,Wunderground v.1.13,2013-11-03 01:04:00,
2013-11-02 21:10:00,52.4,39.8,30.08,NW,312,7.0,7.0,62,0.00,,,0.00,Wunderground v.1.13,2013-11-03 01:10:00,
2013-11-02 21:16:00,52.3,40.1,30.09,NW,306,6.0,6.0,63,0.00,,,0.00,Wunderground v.1.13,2013-11-03 01:16:00,
2013-11-02 21:21:00,52.2,40.4,30.09,NW,308,4.0,4.0,64,0.00,,,0.00,Wunderground v.1.13,2013-11-03 01:21:00,
2013-11-02 21:27:00,52.0,40.6,30.09,NW,325,5.0,7.0,65,0.00,,,0.00,Wunderground v.1.13,2013-11-03 01:27:00,
2013-11-02 21:32:00,51.8,40.0,30.09,NW,323,6.0,6.0,64,0.00,,,0.00,Wunderground v.1.13,2013-11-03 01:32:00,
2013-11-02 21:38:00,51.7,40.3,30.10,NW,318,5.0,6.0,65,0.00,,,0.00,Wunderground v.1.13,2013-11-03 01:38:00,
2013-11-02 21:43:00,51.5,40.1,30.10,NW,324,5.0,9.0,65,0.00,,,0.00,Wunderground v.1.13,2013-11-03 01:43:00,
2013-11-02 21:49:00,51.4,40.0,30.10,NW,320,6.0,9.0,65,0.00,,,0.00,Wunderground v.1.13,2013-11-03 01:49:00,
2013-11-02 21:54:00,51.3,40.3,30.10,NW,312,6.0,9.0,66,0.00,,,0.00,Wunderground v.1.13,2013-11-03 01:54:00,
2013-11-02 22:00:00,51.3,39.9,30.11,NW,316,7.0,11.0,65,0.00,,,0.00,Wunderground v.1.13,2013-11-03 02:00:00,
2013-11-02 22:05:00,51.2,39.8,30.11,NW,310,8.0,8.0,65,0.00,,,0.00,Wunderground v.1.13,2013-11-03 02:05:00,
2013-11-02 22:11:00,51.1,39.7,30.11,NW,317,9.0,11.0,65,0.00,,,0.00,Wunderground v.1.13,2013-11-03 02:11:00,
2013-11-02 22:17:00,51.1,40.1,30.11,NW,315,7.0,8.0,66,0.00,,,0.00,Wunderground v.1.13,2013-11-03 02:17:00,
2013-11-02 22:22:00,51.0,40.0,30.12,NNW,337,7.0,10.0,66,0.00,,,0.00,Wunderground v.1.13,2013-11-03 02:22:00,
2013-11-02 22:27:00,50.8,39.8,30.12,NNW,327,7.0,7.0,66,0.00,,,0.00,Wunderground v.1.13,2013-11-03 02:27:00,
2013-11-02 22:32:00,50.5,39.6,30.13,NNW,329,6.0,7.0,66,0.00,,,0.00,Wunderground v.1.13,2013-11-03 02:32:00,
2013-11-02 22:38:00,50.3,39.8,30.13,NNW,330,5.0,6.0,67,0.00,,,0.00,Wunderground v.1.13,2013-11-03 02:38:00,
2013-11-02 22:43:00,49.9,39.8,30.13,NNW,329,4.0,6.0,68,0.00,,,0.00,Wunderground v.1.13,2013-11-03 02:43:00,
2013-11-02 22:49:00,49.5,39.7,30.13,NNW,329,3.0,4.0,69,0.00,,,0.00,Wunderground v.1.13,2013-11-03 02:49:00,
2013-11-02 22:55:00,49.1,39.7,30.13,NNW,329,3.0,3.0,70,0.00,,,0.00,Wunderground v.1.13,2013-11-03 02:55:00,
2013-11-02 23:01:00,48.7,39.7,30.14,NW,320,3.0,6.0,71,0.00,,,0.00,Wunderground v.1.13,2013-11-03 03:01:00,
2013-11-02 23:06:00,48.6,40.0,30.14,NW,320,3.0,3.0,72,0.00,,,0.00,Wunderground v.1.13,2013-11-03 03:06:00,
2013-11-02 23:11:00,48.5,39.9,30.14,NW,321,3.0,5.0,72,0.00,,,0.00,Wunderground v.1.13,2013-11-03 03:11:00,
2013-11-02 23:17:00,48.5,39.9,30.14,NW,321,4.0,4.0,72,0.00,,,0.00,Wunderground v.1.13,2013-11-03 03:17:00,
2013-11-02 23:23:00,48.6,40.0,30.14,NW,321,4.0,5.0,72,0.00,,,0.00,Wunderground v.1.13,2013-11-03 03:23:00,
2013-11-02 23:28:00,48.7,40.1,30.14,NW,321,2.0,3.0,72,0.00,,,0.00,Wunderground v.1.13,2013-11-03 03:28:00,
2013-11-02 23:34:00,48.7,40.1,30.15,NW,321,1.0,4.0,72,0.00,,,0.00,Wunderground v.1.13,2013-11-03 03:34:00,
2013-11-02 23:40:00,48.8,40.2,30.15,NW,306,4.0,4.0,72,0.00,,,0.00,Wunderground v.1.13,2013-11-03 03:40:00,
2013-11-02 23:46:00,48.8,40.2,30.15,NW,306,4.0,5.0,72,0.00,,,0.00,Wunderground v.1.13,2013-11-03 03:46:00,
2013-11-02 23:51:00,48.8,40.2,30.15,NW,305,4.0,5.0,72,0.00,,,0.00,Wunderground v.1.13,2013-11-03 03:51:00,
2013-11-02 23:57:00,49.0,40.4,30.15,NW,304,4.0,6.0,72,0.00,,,0.00,Wunderground v.1.13,2013-11-03 03:57:00,